createdAt,value
2023-03-10T00:00:52.809Z,2.40
2023-03-10T00:03:20.733Z,2.37
2023-03-10T00:05:49.195Z,2.20
2023-03-10T00:08:18.625Z,2.43
2023-03-10T00:10:48.075Z,2.20
2023-03-10T00:13:16.104Z,2.57
2023-03-10T00:15:44.163Z,2.50
2023-03-10T00:18:12.380Z,2.70
2023-03-10T00:20:40.490Z,2.40
2023-03-10T00:23:08.387Z,1.83
2023-03-10T00:25:37.898Z,2.70
2023-03-10T00:28:05.844Z,1.60
2023-03-10T00:30:35.223Z,2.40
2023-03-10T00:33:03.268Z,1.30
2023-03-10T00:35:31.320Z,1.77
2023-03-10T00:37:59.326Z,1.20
2023-03-10T00:40:27.177Z,1.80
2023-03-10T00:42:56.473Z,2.10
2023-03-10T00:45:24.305Z,1.40
2023-03-10T00:47:52.282Z,1.53
2023-03-10T00:50:20.380Z,2.10
2023-03-10T00:52:48.225Z,1.73
2023-03-10T00:55:16.185Z,1.70
2023-03-10T00:57:44.059Z,2.80
2023-03-10T01:00:17.889Z,3.50
2023-03-10T01:02:45.804Z,2.43
2023-03-10T01:05:15.735Z,2.03
2023-03-10T01:07:43.684Z,2.00
2023-03-10T01:10:13.209Z,2.33
2023-03-10T01:12:41.140Z,2.23
2023-03-10T01:15:09.898Z,1.57
2023-03-10T01:17:39.189Z,2.80
2023-03-10T01:20:09.798Z,1.53
2023-03-10T01:22:37.776Z,1.67
2023-03-10T01:25:06.636Z,1.60
2023-03-10T01:27:34.623Z,1.73
2023-03-10T01:30:02.646Z,2.20
2023-03-10T01:32:30.677Z,1.63
2023-03-10T01:35:00.032Z,1.93
2023-03-10T01:37:27.951Z,2.70
2023-03-10T01:39:55.830Z,1.93
2023-03-10T01:42:23.927Z,1.57
2023-03-10T01:45:09.620Z,1.87
2023-03-10T01:47:37.904Z,1.60
2023-03-10T01:50:09.425Z,1.40
2023-03-10T01:52:38.122Z,2.13
2023-03-10T01:55:10.718Z,1.97
2023-03-10T01:57:44.176Z,1.37
2023-03-10T02:00:14.821Z,1.63
2023-03-10T02:02:51.282Z,1.60
2023-03-10T02:05:21.714Z,3.30
2023-03-10T02:07:50.044Z,2.27
2023-03-10T02:10:18.029Z,2.30
2023-03-10T02:12:45.972Z,2.30
2023-03-10T02:15:14.395Z,2.67
2023-03-10T02:17:42.570Z,1.90
2023-03-10T02:20:30.755Z,2.33
2023-03-10T02:22:58.882Z,1.63
2023-03-10T02:25:34.150Z,1.80
2023-03-10T02:28:03.721Z,1.73
2023-03-10T02:30:35.284Z,1.80
2023-03-10T02:33:06.652Z,1.90
2023-03-10T02:35:34.926Z,1.50
2023-03-10T02:38:02.829Z,1.23
2023-03-10T02:40:34.668Z,1.40
2023-03-10T02:43:07.255Z,1.20
2023-03-10T02:45:38.654Z,1.40
2023-03-10T02:48:07.964Z,1.97
2023-03-10T02:50:39.381Z,1.40
2023-03-10T02:53:12.359Z,2.50
2023-03-10T02:55:40.725Z,2.40
2023-03-10T02:58:10.688Z,2.70
2023-03-10T03:00:39.438Z,2.43
2023-03-10T03:03:08.111Z,2.80
2023-03-10T03:05:36.420Z,2.73
2023-03-10T03:08:04.545Z,2.30
2023-03-10T03:10:33.156Z,2.40
2023-03-10T03:13:01.237Z,3.27
2023-03-10T03:15:30.798Z,3.10
2023-03-10T03:17:59.808Z,2.20
2023-03-10T03:20:28.828Z,2.20
2023-03-10T03:22:57.647Z,2.47
2023-03-10T03:25:27.778Z,1.63
2023-03-10T03:27:56.791Z,1.60
2023-03-10T03:30:27.386Z,1.33
2023-03-10T03:32:57.522Z,1.80
2023-03-10T03:35:27.810Z,1.30
2023-03-10T03:37:56.120Z,1.30
2023-03-10T03:40:25.902Z,1.77
2023-03-10T03:42:55.151Z,1.30
2023-03-10T03:45:25.714Z,1.63
2023-03-10T03:47:53.968Z,1.90
2023-03-10T03:50:24.205Z,1.37
2023-03-10T03:52:52.730Z,1.93
2023-03-10T03:55:21.114Z,1.80
2023-03-10T03:57:49.450Z,2.10
2023-03-10T04:00:21.422Z,1.90
2023-03-10T04:02:49.672Z,1.30
2023-03-10T04:05:18.073Z,2.03
2023-03-10T04:07:48.508Z,1.73
2023-03-10T04:10:20.528Z,2.37
2023-03-10T04:12:48.961Z,2.33
2023-03-10T04:15:17.593Z,2.30
2023-03-10T04:17:45.897Z,1.90
2023-03-10T04:20:14.396Z,1.70
2023-03-10T04:22:42.700Z,2.13
2023-03-10T04:25:13.547Z,2.10
2023-03-10T04:27:41.683Z,1.80
2023-03-10T04:30:12.491Z,2.20
2023-03-10T04:32:40.667Z,1.70
2023-03-10T04:35:09.645Z,2.03
2023-03-10T04:37:37.810Z,2.20
2023-03-10T04:40:09.554Z,2.70
2023-03-10T04:46:27.201Z,1.23
2023-03-10T04:48:56.103Z,1.20
2023-03-10T04:51:24.434Z,1.70
2023-03-10T04:53:52.636Z,1.30
2023-03-10T04:56:20.762Z,1.07
2023-03-10T04:58:48.821Z,1.50
2023-03-10T05:01:17.266Z,0.93
2023-03-10T05:03:46.794Z,1.33
2023-03-10T05:06:15.511Z,1.23
2023-03-10T05:08:43.681Z,1.30
2023-03-10T05:11:11.941Z,0.90
2023-03-10T05:13:40.041Z,0.70
2023-03-10T05:16:15.025Z,1.20
2023-03-10T05:18:43.314Z,1.40
2023-03-10T05:21:13.494Z,1.50
2023-03-10T05:23:41.737Z,1.07
2023-03-10T05:26:11.663Z,1.73
2023-03-10T05:28:40.170Z,1.30
2023-03-10T05:31:12.673Z,1.47
2023-03-10T05:33:41.428Z,1.20
2023-03-10T05:36:13.403Z,1.53
2023-03-10T05:38:41.664Z,1.60
2023-03-10T05:41:10.707Z,1.50
2023-03-10T05:43:39.527Z,1.80
2023-03-10T05:46:08.454Z,2.30
2023-03-10T05:48:38.008Z,3.27
2023-03-10T05:51:09.038Z,2.80
2023-03-10T05:53:39.376Z,2.00
2023-03-10T05:56:09.802Z,1.60
2023-03-10T05:58:38.639Z,2.00
2023-03-10T06:01:07.822Z,1.30
2023-03-10T06:03:36.903Z,1.03
2023-03-10T06:06:06.867Z,1.27
2023-03-10T06:08:36.045Z,1.13
2023-03-10T06:11:06.461Z,0.90
2023-03-10T06:13:34.608Z,1.27
2023-03-10T06:16:05.230Z,1.47
2023-03-10T06:18:33.925Z,1.20
2023-03-10T06:21:06.695Z,1.07
2023-03-10T06:23:35.223Z,1.13
2023-03-10T06:26:07.135Z,0.80
2023-03-10T06:28:37.282Z,1.33
2023-03-10T06:31:10.996Z,0.60
2023-03-10T06:34:01.556Z,0.80
2023-03-10T06:36:33.047Z,0.90
2023-03-10T06:39:02.204Z,1.40
2023-03-10T06:41:32.408Z,0.90
2023-03-10T06:44:02.524Z,0.77
2023-03-10T06:46:30.948Z,1.20
2023-03-10T06:48:58.936Z,1.47
2023-03-10T06:51:27.138Z,1.33
2023-03-10T06:53:55.233Z,0.90
2023-03-10T06:56:23.474Z,0.87
2023-03-10T06:58:53.149Z,0.90
2023-03-10T07:01:29.114Z,1.00
2023-03-10T07:03:58.761Z,0.90
2023-03-10T07:06:28.625Z,1.30
2023-03-10T07:08:57.278Z,1.23
2023-03-10T07:11:26.920Z,1.03
2023-03-10T07:14:08.396Z,1.13
2023-03-10T07:16:37.948Z,0.90
2023-03-10T07:19:06.575Z,0.87
2023-03-10T07:21:34.694Z,1.20
2023-03-10T07:24:02.680Z,1.00
2023-03-10T07:26:32.033Z,1.07
2023-03-10T07:29:02.544Z,0.83
2023-03-10T07:31:30.791Z,0.90
2023-03-10T07:33:58.702Z,0.80
2023-03-10T07:36:27.234Z,1.00
2023-03-10T07:38:55.311Z,1.03
2023-03-10T07:41:23.614Z,0.83
2023-03-10T07:43:55.016Z,0.90
2023-03-10T07:46:24.651Z,0.77
2023-03-10T07:48:53.850Z,0.90
2023-03-10T07:51:21.992Z,0.60
2023-03-10T07:53:50.102Z,1.30
2023-03-10T07:56:18.298Z,0.70
2023-03-10T07:58:50.721Z,0.87
2023-03-10T08:01:23.484Z,1.07
2023-03-10T08:03:54.756Z,0.67
2023-03-10T08:06:26.148Z,0.90
2023-03-10T08:08:55.179Z,0.90
2023-03-10T08:11:23.516Z,1.00
2023-03-10T08:13:51.609Z,0.70
2023-03-10T08:16:21.953Z,0.60
2023-03-10T08:18:57.427Z,0.90
2023-03-10T08:21:25.349Z,0.70
2023-03-10T08:23:53.284Z,0.80
2023-03-10T08:26:21.233Z,0.97
2023-03-10T08:28:49.646Z,1.10
2023-03-10T08:31:20.202Z,0.70
2023-03-10T08:33:49.125Z,1.17
2023-03-10T08:36:20.566Z,0.87
2023-03-10T08:38:49.329Z,0.93
2023-03-10T08:42:07.447Z,0.77
2023-03-10T08:45:30.562Z,0.93
2023-03-10T08:49:02.848Z,0.90
2023-03-10T08:51:43.084Z,0.77
2023-03-10T08:54:31.297Z,1.10
2023-03-10T08:57:11.907Z,1.10
2023-03-10T09:00:16.966Z,1.23
2023-03-10T09:03:07.419Z,1.00
2023-03-10T09:05:51.114Z,1.13
2023-03-10T09:08:37.054Z,1.37
2023-03-10T09:11:09.277Z,1.33
2023-03-10T09:13:37.916Z,0.70
2023-03-10T09:16:17.748Z,1.13
2023-03-10T09:18:53.538Z,1.20
2023-03-10T09:27:46.730Z,0.80
2023-03-10T09:30:16.243Z,0.97
2023-03-10T09:32:57.566Z,0.90
2023-03-10T09:35:25.612Z,0.93
2023-03-10T09:37:53.733Z,1.07
2023-03-10T09:40:23.570Z,0.73
2023-03-10T09:42:58.262Z,0.93
2023-03-10T09:45:40.099Z,0.70
2023-03-10T09:48:30.976Z,1.27
2023-03-10T09:51:03.210Z,0.83
2023-03-10T09:53:56.506Z,0.80
2023-03-10T09:56:30.168Z,0.60
2023-03-10T09:59:01.423Z,0.50
2023-03-10T10:01:32.746Z,0.67
2023-03-10T10:04:05.991Z,0.70
2023-03-10T10:06:39.133Z,0.63
2023-03-10T10:09:14.037Z,0.70
2023-03-10T10:11:43.438Z,0.83
2023-03-10T10:14:29.252Z,0.73
2023-03-10T10:17:07.094Z,0.60
2023-03-10T10:19:37.223Z,0.90
2023-03-10T10:22:19.881Z,0.80
2023-03-10T10:25:04.311Z,0.60
2023-03-10T10:27:37.133Z,0.77
2023-03-10T10:30:30.135Z,0.80
2023-03-10T10:33:31.176Z,0.90
2023-03-10T10:36:25.925Z,1.20
2023-03-10T10:38:59.100Z,1.00
2023-03-10T10:41:30.576Z,0.87
2023-03-10T10:44:10.685Z,0.57
2023-03-10T10:46:38.870Z,0.60
2023-03-10T10:49:09.372Z,0.77
2023-03-10T10:51:38.956Z,0.70
2023-03-10T10:54:28.092Z,0.77
2023-03-10T10:56:57.861Z,0.67
2023-03-10T10:59:31.548Z,0.73
2023-03-10T11:02:01.735Z,1.10
2023-03-10T11:04:41.529Z,0.80
2023-03-10T11:07:13.183Z,0.80
2023-03-10T11:09:41.536Z,0.87
2023-03-10T11:13:10.504Z,0.70
2023-03-10T11:16:32.017Z,0.83
2023-03-10T11:19:09.485Z,1.60
2023-03-10T11:25:48.398Z,1.33
2023-03-10T11:28:52.490Z,1.00
2023-03-10T11:31:38.319Z,1.10
2023-03-10T11:34:23.226Z,1.10
2023-03-10T11:37:07.821Z,0.93
2023-03-10T11:39:55.443Z,1.00
2023-03-10T11:42:30.037Z,1.10
2023-03-10T11:45:06.605Z,1.00
2023-03-10T11:47:49.234Z,1.00
2023-03-10T11:50:29.582Z,1.30
2023-03-10T11:53:03.473Z,1.37
2023-03-10T11:55:33.371Z,1.10
2023-03-10T11:58:04.268Z,1.37
2023-03-10T12:00:37.716Z,1.17
2023-03-10T12:03:18.135Z,1.43
2023-03-10T12:05:53.178Z,2.27
2023-03-10T12:08:26.251Z,1.70
2023-03-10T12:10:55.564Z,1.07
2023-03-10T12:14:17.997Z,1.07
2023-03-10T12:16:47.012Z,1.00
2023-03-10T12:19:14.882Z,0.70
2023-03-10T12:22:40.620Z,1.13
2023-03-10T12:25:44.998Z,1.10
2023-03-10T12:28:24.612Z,1.70
2023-03-10T12:30:56.601Z,1.10
2023-03-10T12:33:48.152Z,0.70
2023-03-10T12:36:20.549Z,0.70
2023-03-10T12:38:51.064Z,0.77
2023-03-10T12:41:48.672Z,0.70
2023-03-10T12:44:49.070Z,0.70
2023-03-10T12:47:48.699Z,0.90
2023-03-10T12:50:30.721Z,0.83
2023-03-10T12:53:05.467Z,0.70
2023-03-10T12:55:34.375Z,0.80
2023-03-10T12:58:12.915Z,0.90
2023-03-10T13:00:54.665Z,0.80
2023-03-10T13:03:45.889Z,0.80
2023-03-10T13:06:22.858Z,0.90
2023-03-10T13:08:53.504Z,1.10
2023-03-10T13:11:36.312Z,0.70
2023-03-10T13:14:11.921Z,0.70
2023-03-10T13:16:46.458Z,0.73
2023-03-10T13:19:21.283Z,0.90
2023-03-10T13:21:51.195Z,0.50
2023-03-10T13:24:26.468Z,1.20
2023-03-10T13:29:36.171Z,1.00
2023-03-10T13:32:04.308Z,0.60
2023-03-10T13:34:34.262Z,0.83
2023-03-10T13:37:06.885Z,0.90
2023-03-10T13:39:35.288Z,0.67
2023-03-10T13:42:05.295Z,0.70
2023-03-10T13:44:39.590Z,0.70
2023-03-10T13:47:18.038Z,0.60
2023-03-10T13:49:49.429Z,0.93
2023-03-10T13:52:20.433Z,0.80
2023-03-10T13:54:49.510Z,0.80
2023-03-10T13:57:25.406Z,0.80
2023-03-10T13:59:57.306Z,1.00
2023-03-10T14:02:30.281Z,0.70
2023-03-10T14:04:58.928Z,0.80
2023-03-10T14:07:29.977Z,0.83
2023-03-10T14:10:14.527Z,0.70
2023-03-10T14:12:44.405Z,1.00
2023-03-10T14:15:25.463Z,0.90
2023-03-10T14:18:14.466Z,0.90
2023-03-10T14:20:44.493Z,1.20
2023-03-10T14:23:28.126Z,1.00
2023-03-10T14:25:58.661Z,0.90
2023-03-10T14:28:29.029Z,0.77
2023-03-10T14:30:59.254Z,0.70
2023-03-10T14:33:27.549Z,0.63
2023-03-10T14:35:57.501Z,0.53
2023-03-10T14:38:25.582Z,0.60
2023-03-10T14:40:56.675Z,0.77
2023-03-10T14:43:27.398Z,0.73
2023-03-10T14:45:58.156Z,0.90
2023-03-10T14:52:14.880Z,0.70
2023-03-10T14:58:13.547Z,0.60
2023-03-10T15:00:43.324Z,0.60
2023-03-10T15:03:14.099Z,0.87
2023-03-10T15:05:49.368Z,1.17
2023-03-10T15:08:20.900Z,0.70
2023-03-10T15:11:27.105Z,0.80
2023-03-10T15:14:05.893Z,1.00
2023-03-10T15:19:52.832Z,0.70
2023-03-10T15:25:45.596Z,0.60
2023-03-10T15:28:26.680Z,0.60
2023-03-10T15:30:56.995Z,0.70
2023-03-10T15:33:25.163Z,0.70
2023-03-10T15:36:08.415Z,0.90
2023-03-10T15:38:37.200Z,0.80
2023-03-10T15:41:07.309Z,0.50
2023-03-10T15:43:36.729Z,0.80
2023-03-10T15:46:08.032Z,0.90
2023-03-10T15:48:37.581Z,0.70
2023-03-10T15:51:16.936Z,0.50
2023-03-10T15:53:46.023Z,0.60
2023-03-10T15:56:16.277Z,0.80
2023-03-10T15:58:44.601Z,0.60
2023-03-10T16:01:16.373Z,0.70
2023-03-10T16:03:45.093Z,0.60
2023-03-10T16:06:14.269Z,0.60
2023-03-10T16:08:44.620Z,0.60
2023-03-10T16:11:20.580Z,0.60
2023-03-10T16:13:49.974Z,0.80
2023-03-10T16:16:19.421Z,0.90
2023-03-10T16:18:48.692Z,0.60
2023-03-10T16:21:18.151Z,0.53
2023-03-10T16:23:46.877Z,0.70
2023-03-10T16:26:18.810Z,0.50
2023-03-10T16:28:48.999Z,0.93
2023-03-10T16:31:20.035Z,0.70
2023-03-10T16:33:49.853Z,0.83
2023-03-10T16:36:20.561Z,0.90
2023-03-10T16:38:49.855Z,0.80
2023-03-10T16:41:19.732Z,0.57
2023-03-10T16:43:48.038Z,0.60
2023-03-10T16:46:20.312Z,1.03
2023-03-10T16:48:50.220Z,0.60
2023-03-10T16:51:25.025Z,0.70
2023-03-10T16:53:56.972Z,1.50
2023-03-10T16:56:28.486Z,0.80
2023-03-10T16:58:57.853Z,0.87
2023-03-10T17:01:28.100Z,0.67
2023-03-10T17:03:58.378Z,0.80
2023-03-10T17:06:33.134Z,0.50
2023-03-10T17:09:03.586Z,0.70
2023-03-10T17:11:36.640Z,0.90
2023-03-10T17:14:07.693Z,0.63
2023-03-10T17:16:37.417Z,0.83
2023-03-10T17:19:08.214Z,1.33
2023-03-10T17:21:39.544Z,0.80
2023-03-10T17:24:09.299Z,1.00
2023-03-10T17:26:39.629Z,0.90
2023-03-10T17:29:13.307Z,1.30
2023-03-10T17:31:42.004Z,1.23
2023-03-10T17:34:13.839Z,0.90
2023-03-10T17:36:44.543Z,0.87
2023-03-10T17:39:19.025Z,1.07
2023-03-10T17:41:50.086Z,0.80
2023-03-10T17:44:19.176Z,0.90
2023-03-10T17:46:48.494Z,0.80
2023-03-10T17:49:17.951Z,1.00
2023-03-10T17:51:47.326Z,1.00
2023-03-10T17:54:17.610Z,1.17
2023-03-10T17:56:45.793Z,1.00
2023-03-10T17:59:16.304Z,1.20
2023-03-10T18:01:45.870Z,1.40
2023-03-10T18:04:14.440Z,1.77
2023-03-10T18:06:42.596Z,1.60
2023-03-10T18:09:14.140Z,1.20
2023-03-10T18:11:43.035Z,1.20
2023-03-10T18:14:11.040Z,1.33
2023-03-10T18:16:41.567Z,1.40
2023-03-10T18:19:11.445Z,1.07
2023-03-10T18:21:39.925Z,1.10
2023-03-10T18:24:12.060Z,1.23
2023-03-10T18:26:43.356Z,0.93
2023-03-10T18:29:12.637Z,1.70
2023-03-10T18:31:42.560Z,1.20
2023-03-10T18:34:13.094Z,1.23
2023-03-10T18:36:42.059Z,1.00
2023-03-10T18:39:11.793Z,1.27
2023-03-10T18:41:41.151Z,1.03
2023-03-10T18:44:09.624Z,1.37
2023-03-10T18:46:38.287Z,1.30
2023-03-10T18:49:07.764Z,1.00
2023-03-10T18:51:37.525Z,1.40
2023-03-10T18:54:06.989Z,1.00
2023-03-10T18:56:40.614Z,1.07
2023-03-10T18:59:08.951Z,1.30
2023-03-10T19:01:48.615Z,1.20
2023-03-10T19:04:20.587Z,1.37
2023-03-10T19:12:35.288Z,1.60
2023-03-10T19:15:07.846Z,1.67
2023-03-10T19:17:37.811Z,1.50
2023-03-10T19:20:11.407Z,1.07
2023-03-10T19:22:40.499Z,1.30
2023-03-10T19:25:13.349Z,1.20
2023-03-10T19:27:42.153Z,0.90
2023-03-10T19:30:14.430Z,1.20
2023-03-10T19:32:45.704Z,1.13
2023-03-10T19:35:16.692Z,1.07
2023-03-10T19:37:45.052Z,1.03
2023-03-10T19:40:15.037Z,1.40
2023-03-10T19:42:44.056Z,1.07
2023-03-10T19:45:14.556Z,1.50
2023-03-10T19:47:43.732Z,0.97
2023-03-10T19:50:13.445Z,1.37
2023-03-10T19:52:45.779Z,1.90
2023-03-10T19:55:18.070Z,1.53
2023-03-10T19:57:46.135Z,1.17
2023-03-10T20:00:16.439Z,1.47
2023-03-10T20:02:45.688Z,1.30
2023-03-10T20:05:16.072Z,1.50
2023-03-10T20:07:47.018Z,1.20
2023-03-10T20:10:16.323Z,1.20
2023-03-10T20:12:47.673Z,1.10
2023-03-10T20:16:03.904Z,1.47
2023-03-10T20:18:37.355Z,1.10
2023-03-10T20:21:07.215Z,2.33
2023-03-10T20:23:39.285Z,1.67
2023-03-10T20:26:12.254Z,3.97
2023-03-10T20:28:41.994Z,1.47
2023-03-10T20:31:10.232Z,1.47
2023-03-10T20:33:38.324Z,1.20
2023-03-10T20:36:08.700Z,1.20
2023-03-10T20:38:38.505Z,1.27
2023-03-10T20:41:07.103Z,1.90
2023-03-10T20:43:35.851Z,1.10
2023-03-10T20:46:04.382Z,1.40
2023-03-10T20:48:32.607Z,1.07
2023-03-10T20:51:02.096Z,1.10
2023-03-10T20:53:34.153Z,1.50
2023-03-10T20:56:14.800Z,1.10
2023-03-10T20:58:52.036Z,1.00
2023-03-10T21:01:22.257Z,1.13
2023-03-10T21:03:54.527Z,1.10
2023-03-10T21:06:23.696Z,0.83
2023-03-10T21:08:52.389Z,1.00
2023-03-10T21:11:22.316Z,1.20
2023-03-10T21:14:14.955Z,2.17
2023-03-10T21:16:46.829Z,1.30
2023-03-10T21:19:15.641Z,1.07
2023-03-10T21:21:44.210Z,1.00
2023-03-10T21:24:13.670Z,1.40
2023-03-10T21:26:43.763Z,1.47
2023-03-10T21:29:22.900Z,1.07
2023-03-10T21:31:51.178Z,1.63
2023-03-10T21:34:19.467Z,1.10
2023-03-10T21:36:48.298Z,1.40
2023-03-10T21:39:19.310Z,1.50
2023-03-10T21:41:49.427Z,1.47
2023-03-10T21:44:20.391Z,1.47
2023-03-10T21:46:52.033Z,1.23
2023-03-10T21:49:20.171Z,1.50
2023-03-10T21:51:50.396Z,1.70
2023-03-10T21:54:18.613Z,1.50
2023-03-10T21:56:48.237Z,1.57
2023-03-10T21:59:16.670Z,1.57
2023-03-10T22:01:44.812Z,1.53
2023-03-10T22:04:13.624Z,1.70
2023-03-10T22:06:41.713Z,1.37
2023-03-10T22:09:37.660Z,1.87
2023-03-10T22:12:24.645Z,1.77
2023-03-10T22:14:56.475Z,1.80
2023-03-10T22:17:25.004Z,1.87
2023-03-10T22:19:54.903Z,1.93
2023-03-10T22:22:23.492Z,1.60
2023-03-10T22:24:53.806Z,1.37
2023-03-10T22:27:23.348Z,1.70
2023-03-10T22:29:51.582Z,1.90
2023-03-10T22:32:19.833Z,1.80
2023-03-10T22:34:48.140Z,1.40
2023-03-10T22:37:16.198Z,6.60
2023-03-10T22:39:46.506Z,2.07
2023-03-10T22:42:14.707Z,1.30
2023-03-10T22:44:44.456Z,1.20
2023-03-10T22:47:12.680Z,1.67
2023-03-10T22:50:27.787Z,1.40
2023-03-10T22:52:56.015Z,1.30
2023-03-10T22:55:26.300Z,1.23
2023-03-10T22:57:56.595Z,1.00
2023-03-10T23:00:26.208Z,1.10
2023-03-10T23:02:54.641Z,1.40
2023-03-10T23:05:23.838Z,1.10
2023-03-10T23:07:52.105Z,1.20
2023-03-10T23:10:23.359Z,1.20
2023-03-10T23:12:51.858Z,1.03
2023-03-10T23:15:25.137Z,1.10
2023-03-10T23:17:56.051Z,1.23
2023-03-10T23:20:27.566Z,1.20
2023-03-10T23:22:56.934Z,0.90
2023-03-10T23:25:27.646Z,0.90
2023-03-10T23:27:55.876Z,1.17
2023-03-10T23:30:24.167Z,1.10
2023-03-10T23:32:54.229Z,1.13
2023-03-10T23:35:24.287Z,1.07
2023-03-10T23:37:52.623Z,1.00
2023-03-10T23:40:22.742Z,1.20
2023-03-10T23:43:01.557Z,1.10
2023-03-10T23:45:31.730Z,0.93
2023-03-10T23:48:02.524Z,1.13
2023-03-10T23:50:33.305Z,1.07
2023-03-10T23:53:01.367Z,1.17
2023-03-10T23:55:32.162Z,0.80
2023-03-10T23:58:00.221Z,1.07
